Time;durP1;ratioP1;P1;durP2;ratioP2;P2;SDS_P1;SDS_P2;PMS_P1;PMS_P2;Temp;Humidity;BMP_temperature;BMP_pressure;BME280_temperature;BME280_humidity;BME280_pressure;Samples;Min_cycle;Max_cycle;Signal;HPM_P1;HPM_P2
2024/03/15 00:00:53;;;;;;;;;47.00;38.00;;;;;8.28;100.00;99510.13;6273784;20;2852392;-47
2024/03/15 00:03:23;;;;;;;;;44.50;38.50;;;;;8.44;100.00;99507.50;6272046;20;2854665;-49
2024/03/15 00:05:53;;;;;;;;;46.50;38.00;;;;;8.17;100.00;99509.84;6271424;20;2853564;-47
2024/03/15 00:08:22;;;;;;;;;43.00;36.50;;;;;8.24;100.00;99514.78;6273366;20;2836803;-46
2024/03/15 00:10:50;;;;;;;;;47.00;37.50;;;;;8.09;100.00;99508.44;6274873;20;2849316;-49
2024/03/15 00:13:19;;;;;;;;;46.00;38.00;;;;;8.39;100.00;99515.75;6270514;20;2855599;-50
2024/03/15 00:15:47;;;;;;;;;42.50;37.00;;;;;8.43;100.00;99514.66;6268629;20;2494023;-54
2024/03/15 00:18:17;;;;;;;;;41.00;37.00;;;;;8.48;100.00;99514.41;6271916;20;2857729;-49
2024/03/15 00:20:48;;;;;;;;;35.67;33.67;;;;;8.13;100.00;99499.28;6277356;20;3598652;-48
2024/03/15 00:23:17;;;;;;;;;48.00;33.67;;;;;7.68;100.00;99508.84;6270147;20;3616392;-48
2024/03/15 00:25:46;;;;;;;;;38.33;32.67;;;;;7.69;100.00;99502.56;6304320;20;3609623;-50
2024/03/15 00:28:15;;;;;;;;;41.00;31.00;;;;;7.45;100.00;99503.81;6273026;20;2886020;-49
2024/03/15 00:30:45;;;;;;;;;31.00;27.67;;;;;7.38;100.00;99497.09;6304432;20;2858783;-49
2024/03/15 00:33:14;;;;;;;;;32.33;29.00;;;;;7.41;100.00;99504.94;6304738;20;3582657;-47
2024/03/15 00:35:44;;;;;;;;;36.00;30.33;;;;;7.34;100.00;99496.38;6268452;20;3600292;-47
2024/03/15 00:38:12;;;;;;;;;35.00;30.67;;;;;7.52;100.00;99491.88;6305619;20;3610812;-48
2024/03/15 00:40:42;;;;;;;;;33.00;25.33;;;;;7.51;100.00;99492.84;6270764;20;2870081;-49
2024/03/15 00:43:15;;;;;;;;;29.67;27.00;;;;;7.54;100.00;99492.69;6303354;20;2853545;-49
2024/03/15 00:45:44;;;;;;;;;31.50;28.50;;;;;7.31;100.00;99485.84;6296924;20;2500835;-47
2024/03/15 00:48:13;;;;;;;;;29.00;23.00;;;;;7.42;100.00;99487.97;6272196;20;2844073;-49
2024/03/15 00:50:43;;;;;;;;;36.00;30.33;;;;;7.69;100.00;99488.34;6273043;20;2867035;-47
2024/03/15 00:53:13;;;;;;;;;32.00;30.00;;;;;7.89;100.00;99492.63;6304351;20;2857665;-47
2024/03/15 00:55:42;;;;;;;;;33.50;31.00;;;;;7.60;100.00;99484.34;6301718;20;2852410;-48
2024/03/15 00:58:11;;;;;;;;;29.50;25.00;;;;;7.43;100.00;99481.69;6274299;20;2852371;-50
2024/03/15 01:00:40;;;;;;;;;28.00;25.50;;;;;7.51;100.00;99484.84;6270820;20;2848211;-50
2024/03/15 01:03:10;;;;;;;;;29.00;27.00;;;;;7.24;100.00;99479.09;6271858;20;2846106;-47
2024/03/15 01:05:38;;;;;;;;;27.00;24.00;;;;;7.24;100.00;99482.66;6266969;20;2500398;-47
2024/03/15 01:08:07;;;;;;;;;28.00;24.50;;;;;7.23;100.00;99480.91;6272943;20;2844060;-48
2024/03/15 01:10:36;;;;;;;;;30.50;27.00;;;;;7.30;100.00;99472.59;6271521;20;2855674;-47
2024/03/15 01:13:06;;;;;;;;;24.00;24.00;;;;;7.20;100.00;99475.72;6270133;20;2838860;-51
2024/03/15 01:15:33;;;;;;;;;21.00;21.00;;;;;7.12;100.00;99480.59;6267551;20;2500426;-50
2024/03/15 01:18:03;;;;;;;;;29.00;23.50;;;;;7.22;100.00;99468.50;6269146;20;2838876;-49
2024/03/15 01:20:33;;;;;;;;;25.00;23.50;;;;;7.17;100.00;99475.88;6271952;20;2854500;-52
2024/03/15 01:23:03;;;;;;;;;26.50;24.00;;;;;7.38;100.00;99478.41;6272466;20;2841972;-51
2024/03/15 01:25:30;;;;;;;;;28.00;23.00;;;;;7.42;100.00;99474.59;6273865;20;2500791;-47
2024/03/15 01:27:58;;;;;;;;;28.00;23.50;;;;;7.21;100.00;99471.25;6271827;20;2491951;-47
2024/03/15 01:30:26;;;;;;;;;24.50;23.00;;;;;7.13;100.00;99476.97;6276151;20;2500317;-48
2024/03/15 01:32:55;;;;;;;;;21.00;18.50;;;;;7.36;100.00;99474.94;6275677;20;2829447;-48
2024/03/15 01:35:32;;;;;;;;;18.00;18.00;;;;;7.47;100.00;99478.75;6271311;20;2500354;-50
2024/03/15 01:38:04;;;;;;;;;25.00;19.00;;;;;7.57;100.00;99479.16;6276176;20;2834728;-49
2024/03/15 01:40:36;;;;;;;;;23.50;22.00;;;;;7.08;100.00;99479.00;6273164;20;2843023;-47
2024/03/15 01:43:05;;;;;;;;;21.50;19.00;;;;;7.18;100.00;99477.59;6277159;20;2842002;-49
2024/03/15 01:45:34;;;;;;;;;23.50;19.00;;;;;7.24;100.00;99476.41;6273554;20;2837938;-47
2024/03/15 01:48:03;;;;;;;;;23.50;22.00;;;;;7.13;100.00;99476.09;6274904;20;2835738;-50
2024/03/15 01:50:32;;;;;;;;;23.00;18.00;;;;;7.40;100.00;99481.88;6272180;20;2500407;-48
2024/03/15 01:53:02;;;;;;;;;24.00;19.00;;;;;7.32;100.00;99473.34;6274314;20;2498263;-46
2024/03/15 01:55:32;;;;;;;;;24.00;18.50;;;;;7.09;100.00;99471.88;6274901;20;2500303;-49
2024/03/15 01:58:00;;;;;;;;;23.50;21.50;;;;;7.03;100.00;99473.06;6304460;20;2498327;-49
2024/03/15 02:00:28;;;;;;;;;22.00;17.50;;;;;6.77;100.00;99471.69;6275067;20;2822149;-47
2024/03/15 02:02:57;;;;;;;;;19.00;18.00;;;;;6.88;100.00;99468.50;6274842;20;2817093;-47
2024/03/15 02:05:25;;;;;;;;;15.67;15.67;;;;;6.98;100.00;99472.44;6269874;20;3546104;-47
2024/03/15 02:07:54;;;;;;;;;18.33;17.67;;;;;6.88;100.00;99468.50;6275804;20;3560692;-47
2024/03/15 02:10:22;;;;;;;;;21.50;19.00;;;;;6.79;100.00;99465.34;6276910;20;2831687;-51
2024/03/15 02:12:50;;;;;;;;;15.00;14.00;;;;;6.75;100.00;99468.22;6276364;20;2795081;-47
2024/03/15 02:15:18;;;;;;;;;14.00;10.00;;;;;6.86;100.00;99465.03;6274817;20;2779651;-49
2024/03/15 02:17:47;;;;;;;;;14.33;14.33;;;;;6.87;100.00;99461.41;6273855;20;3531572;-49
2024/03/15 02:20:23;;;;;;;;;18.00;14.00;;;;;7.49;100.00;99481.38;6308048;20;2817775;-52
2024/03/15 02:22:53;;;;;;;;;16.67;16.67;;;;;7.79;100.00;99483.34;6274958;20;3560716;-51
2024/03/15 02:25:21;;;;;;;;;17.50;15.50;;;;;7.25;100.00;99487.03;6306582;20;2824236;-48
2024/03/15 02:27:49;;;;;;;;;14.00;14.00;;;;;7.34;100.00;99482.16;6273466;20;3546077;-46
2024/03/15 02:30:20;;;;;;;;;19.33;17.67;;;;;7.75;100.00;99487.16;6307029;20;3555482;-48
2024/03/15 02:32:48;;;;;;;;;14.33;14.33;;;;;7.77;100.00;99491.47;6275175;20;3540919;-47
2024/03/15 02:35:17;;;;;;;;;19.00;15.33;;;;;7.85;100.00;99499.09;6302930;20;3559654;-49
2024/03/15 02:37:55;;;;;;;;;17.00;13.67;;;;;7.34;100.00;99498.19;6304887;20;3545206;-47
2024/03/15 02:40:24;;;;;;;;;15.33;13.33;;;;;6.89;100.00;99492.41;6272902;20;3548222;-48
2024/03/15 02:42:51;;;;;;;;;15.50;11.50;;;;;6.85;100.00;99479.31;6277429;20;2803412;-49
2024/03/15 02:45:21;;;;;;;;;22.00;15.50;;;;;7.54;100.00;99495.34;6276050;20;2841782;-49
2024/03/15 02:47:51;;;;;;;;;19.00;16.67;;;;;7.73;100.00;99495.25;6276634;20;3573273;-47
2024/03/15 02:50:20;;;;;;;;;15.50;13.50;;;;;7.59;100.00;99493.31;6276677;20;2820113;-49
2024/03/15 02:52:49;;;;;;;;;17.50;16.50;;;;;7.87;100.00;99497.16;6273194;20;2500297;-49
2024/03/15 02:55:17;;;;;;;;;22.00;16.00;;;;;7.78;100.00;99493.19;6279683;20;2827416;-47
2024/03/15 02:57:45;;;;;;;;;16.00;15.00;;;;;7.35;100.00;99495.44;6277400;20;2813856;-48
2024/03/15 03:00:14;;;;;;;;;17.00;16.67;;;;;6.69;100.00;99484.53;6274414;20;3561877;-52
2024/03/15 03:02:44;;;;;;;;;20.67;16.67;;;;;6.63;100.00;99487.50;6305300;20;3560709;-49
2024/03/15 03:05:12;;;;;;;;;24.00;22.00;;;;;6.86;100.00;99483.72;6302929;20;3563841;-53
2024/03/15 03:07:40;;;;;;;;;17.50;17.00;;;;;7.28;100.00;99493.16;6276547;20;2820193;-53
2024/03/15 03:10:08;;;;;;;;;16.00;15.00;;;;;6.66;100.00;99484.66;6279537;20;2809765;-48
2024/03/15 03:12:36;;;;;;;;;21.00;18.50;;;;;6.45;100.00;99494.56;6276502;20;2828390;-48
2024/03/15 03:15:04;;;;;;;;;21.50;17.50;;;;;7.00;100.00;99497.22;6272985;20;2830542;-47
2024/03/15 03:17:32;;;;;;;;;16.00;14.00;;;;;6.73;100.00;99494.97;6274530;20;2815909;-50
2024/03/15 03:20:03;;;;;;;;;13.00;13.00;;;;;6.34;100.00;99481.75;6273172;20;3530623;-50
2024/03/15 03:22:31;;;;;;;;;16.00;15.00;;;;;6.44;100.00;99487.53;6308706;20;2809859;-49
2024/03/15 03:24:59;;;;;;;;;20.00;15.00;;;;;6.64;100.00;99503.44;6277412;20;2812911;-47
2024/03/15 03:27:27;;;;;;;;;17.67;15.33;;;;;6.63;100.00;99503.50;6276175;20;3539981;-47
2024/03/15 03:29:55;;;;;;;;;17.00;13.00;;;;;6.80;100.00;99501.75;6308546;20;2791949;-50
2024/03/15 03:32:24;;;;;;;;;18.00;15.00;;;;;7.29;100.00;99506.41;6274627;20;3544373;-48
2024/03/15 03:34:54;;;;;;;;;20.83;17.33;;;;;7.45;100.00;99511.84;6327526;20;2827228;-48
2024/03/15 03:37:22;;;;;;;;;21.50;15.00;;;;;7.25;100.00;99513.75;6305066;20;2821218;-48
2024/03/15 03:39:50;;;;;;;;;14.50;14.00;;;;;7.21;100.00;99517.53;6278964;20;2796143;-47
2024/03/15 03:42:20;;;;;;;;;16.50;15.00;;;;;7.48;100.00;99514.38;6279007;20;2810735;-49
2024/03/15 03:44:48;;;;;;;;;21.00;15.00;;;;;7.31;100.00;99517.91;6277546;20;2821112;-47
2024/03/15 03:47:17;;;;;;;;;17.33;16.33;;;;;7.43;100.00;99524.44;6271704;20;3571094;-48
2024/03/15 03:49:52;;;;;;;;;18.67;17.67;;;;;7.31;100.00;99525.06;6304567;20;3549229;-46
2024/03/15 03:52:21;;;;;;;;;18.00;15.00;;;;;6.82;100.00;99512.38;6305680;20;3536735;-48
2024/03/15 03:54:49;;;;;;;;;19.67;16.33;;;;;6.66;100.00;99512.25;6273737;20;3560692;-47
2024/03/15 03:57:21;;;;;;;;;16.67;15.67;;;;;6.09;100.00;99516.72;6306890;20;3568034;-47
2024/03/15 04:00:13;;;;;;;;;20.00;15.67;;;;;6.22;100.00;99512.53;6275320;20;3562784;-52
2024/03/15 04:02:47;;;;;;;;;17.67;16.17;;;;;6.31;100.00;99505.91;6330830;20;3564894;-48
2024/03/15 04:05:20;;;;;;;;;21.67;18.67;;;;;6.30;100.00;99499.72;6302334;20;3562796;-49
2024/03/15 04:07:49;;;;;;;;;16.00;16.00;;;;;6.14;100.00;99502.22;6304236;20;3540874;-49
2024/03/15 04:10:18;;;;;;;;;16.67;15.00;;;;;6.20;100.00;99503.75;6272715;20;3548173;-51
2024/03/15 04:12:46;;;;;;;;;16.33;15.00;;;;;6.66;100.00;99500.69;6307148;20;3545065;-49
2024/03/15 04:15:14;;;;;;;;;19.50;16.00;;;;;6.83;100.00;99514.06;6305512;20;2830543;-51
2024/03/15 04:18:02;;;;;;;;;22.00;19.50;;;;;6.47;100.00;99496.22;6276138;20;2826342;-47
2024/03/15 04:20:30;;;;;;;;;23.50;17.00;;;;;5.98;100.00;99495.00;6274417;20;2840923;-48
2024/03/15 04:22:58;;;;;;;;;13.00;13.00;;;;;6.04;100.00;99497.41;6277510;20;2792054;-48
2024/03/15 04:25:27;;;;;;;;;19.33;16.00;;;;;6.51;100.00;99505.84;6273706;20;3558614;-47
2024/03/15 04:27:55;;;;;;;;;18.50;16.00;;;;;6.49;100.00;99506.84;6306661;20;2827883;-47
2024/03/15 04:30:23;;;;;;;;;21.00;17.50;;;;;6.91;100.00;99513.69;6276538;20;2822176;-47
2024/03/15 04:32:55;;;;;;;;;14.00;13.00;;;;;6.98;100.00;99512.47;6277652;20;2789914;-47
2024/03/15 04:35:27;;;;;;;;;14.00;14.00;;;;;6.51;100.00;99502.31;6272263;20;3541065;-48
2024/03/15 04:37:57;;;;;;;;;16.33;14.00;;;;;6.91;100.00;99513.69;6303206;20;3535813;-48
2024/03/15 04:40:28;;;;;;;;;19.00;15.00;;;;;7.01;100.00;99507.84;6302540;20;3548417;-48
2024/03/15 04:42:57;;;;;;;;;21.33;16.00;;;;;6.87;100.00;99509.44;6305614;20;3552435;-48
2024/03/15 04:45:26;;;;;;;;;14.00;11.00;;;;;6.62;100.00;99505.31;6269048;20;2790081;-47
2024/03/15 04:47:57;;;;;;;;;18.67;18.33;;;;;6.29;100.00;99506.00;6304811;20;3558763;-47
2024/03/15 04:50:27;;;;;;;;;15.40;15.00;;;;;6.65;100.00;99512.31;6326849;20;2819058;-49
2024/03/15 04:52:56;;;;;;;;;16.67;12.33;;;;;6.80;100.00;99514.22;6274071;20;3549359;-46
2024/03/15 04:55:24;;;;;;;;;20.67;19.00;;;;;6.84;100.00;99520.28;6267303;20;3581506;-46
2024/03/15 04:57:55;;;;;;;;;28.50;24.50;;;;;6.66;100.00;99520.25;6304963;20;2847388;-49
2024/03/15 05:00:25;;;;;;;;;30.00;23.00;;;;;6.31;100.00;99528.09;6278559;20;2843037;-48
2024/03/15 05:02:53;;;;;;;;;16.50;12.00;;;;;5.98;100.00;99521.66;6279057;20;2793766;-51
2024/03/15 05:05:25;;;;;;;;;19.00;14.00;;;;;5.82;100.00;99517.00;6275598;20;2806519;-47
2024/03/15 05:07:54;;;;;;;;;19.50;16.00;;;;;6.01;100.00;99526.84;6282263;20;2822308;-49
2024/03/15 05:10:22;;;;;;;;;14.00;13.50;;;;;6.30;100.00;99526.38;6279675;20;2787836;-51
2024/03/15 05:12:51;;;;;;;;;20.33;16.00;;;;;6.77;100.00;99531.25;6279984;20;3558696;-49
2024/03/15 05:15:20;;;;;;;;;21.00;14.00;;;;;6.81;100.00;99534.63;6280664;20;2812867;-47
2024/03/15 05:17:48;;;;;;;;;21.00;18.00;;;;;6.77;100.00;99535.72;6278865;20;2836820;-50
2024/03/15 05:20:16;;;;;;;;;17.00;16.00;;;;;5.99;100.00;99536.72;6280953;20;2813844;-49
2024/03/15 05:22:44;;;;;;;;;19.00;15.00;;;;;6.24;100.00;99542.66;6280748;20;2814857;-47
2024/03/15 05:25:15;;;;;;;;;16.00;15.00;;;;;6.47;100.00;99538.03;6280980;20;2826390;-49
2024/03/15 05:27:46;;;;;;;;;16.00;14.50;;;;;6.78;100.00;99546.31;6280422;20;2820271;-46
2024/03/15 05:30:17;;;;;;;;;20.00;18.67;;;;;6.82;100.00;99550.56;6277675;20;3560686;-51
2024/03/15 05:32:47;;;;;;;;;18.33;14.33;;;;;7.03;100.00;99548.66;6319225;20;1813934;-49
2024/03/15 05:35:20;;;;;;;;;14.67;14.67;;;;;6.99;100.00;99548.88;6275052;20;2797291;-54
2024/03/15 05:37:49;;;;;;;;;18.00;16.33;;;;;6.36;100.00;99544.75;6309530;20;3579461;-54
2024/03/15 05:40:18;;;;;;;;;18.00;15.00;;;;;6.16;100.00;99539.47;6308907;20;3540907;-54
2024/03/15 05:42:47;;;;;;;;;15.33;14.67;;;;;6.42;100.00;99545.41;6307110;20;3523234;-54
2024/03/15 05:45:20;;;;;;;;;14.40;10.00;;;;;6.92;100.00;99545.63;6330303;20;2773688;-52
2024/03/15 05:47:52;;;;;;;;;17.00;15.33;;;;;7.21;100.00;99546.88;6276400;20;3537859;-55
2024/03/15 05:50:21;;;;;;;;;20.67;17.00;;;;;6.80;100.00;99547.09;6307729;20;3567010;-51
2024/03/15 05:52:49;;;;;;;;;20.00;18.00;;;;;7.08;100.00;99548.41;6311961;20;2819025;-51
2024/03/15 05:55:19;;;;;;;;;15.67;14.33;;;;;7.29;100.00;99545.63;6274331;20;3526439;-50
2024/03/15 05:57:47;;;;;;;;;14.00;10.00;;;;;7.24;100.00;99549.41;6308380;20;2787870;-52
2024/03/15 06:00:19;;;;;;;;;15.00;15.00;;;;;7.44;100.00;99551.06;6306403;20;2799369;-53
2024/03/15 06:02:51;;;;;;;;;16.00;15.67;;;;;8.87;100.00;99551.41;6277502;20;3547245;-51
2024/03/15 06:05:19;;;;;;;;;18.50;18.00;;;;;8.20;100.00;99552.47;6306341;20;2827423;-51
2024/03/15 06:07:48;;;;;;;;;20.00;16.67;;;;;7.58;100.00;99549.47;6275455;20;3557716;-48
2024/03/15 06:10:20;;;;;;;;;10.00;9.00;;;;;7.56;100.00;99552.25;6273346;20;2764979;-48
2024/03/15 06:12:50;;;;;;;;;14.00;11.50;;;;;7.49;100.00;99561.50;6281766;20;2794069;-48
2024/03/15 06:15:19;;;;;;;;;19.00;16.00;;;;;7.02;100.00;99554.06;6279673;20;2835718;-50
2024/03/15 06:17:51;;;;;;;;;21.00;21.00;;;;;7.34;100.00;99557.78;6277098;20;2832640;-50
2024/03/15 06:20:20;;;;;;;;;17.67;17.33;;;;;7.58;100.00;99560.16;6277956;20;3563831;-52
2024/03/15 06:22:48;;;;;;;;;12.33;12.33;;;;;7.14;100.00;99565.97;6307613;20;3538828;-49
2024/03/15 06:25:17;;;;;;;;;16.00;15.00;;;;;7.03;100.00;99558.47;6305339;20;2801345;-47
2024/03/15 06:27:46;;;;;;;;;28.50;25.50;;;;;7.08;100.00;99552.91;6306260;20;2834708;-47
2024/03/15 06:30:16;;;;;;;;;18.33;14.67;;;;;7.11;100.00;99553.63;6275714;20;3569234;-52
2024/03/15 06:32:46;;;;;;;;;19.67;18.00;;;;;7.43;100.00;99567.16;6276195;20;3562761;-47
2024/03/15 06:35:19;;;;;;;;;19.00;18.00;;;;;8.12;100.00;99577.81;6278227;20;2775280;-48
2024/03/15 06:37:53;;;;;;;;;14.33;14.00;;;;;7.97;100.00;99573.25;6276634;20;3554452;-50
2024/03/15 06:40:42;;;;;;;;;21.50;18.00;;;;;7.88;100.00;99579.97;6276752;20;2828512;-52
2024/03/15 06:43:13;;;;;;;;;17.50;17.50;;;;;8.01;100.00;99582.00;6278349;20;2828532;-52
2024/03/15 06:48:22;;;;;;;;;15.00;15.00;;;;;8.81;100.00;99589.25;6274366;20;3534654;-49
2024/03/15 06:51:00;;;;;;;;;20.00;17.00;;;;;9.35;98.42;99592.44;6274727;20;2500516;-48
2024/03/15 06:53:29;;;;;;;;;16.00;16.00;;;;;9.50;93.04;99589.78;6275290;20;2826414;-48
2024/03/15 06:55:58;;;;;;;;;15.50;15.50;;;;;9.66;91.98;99599.53;6276822;20;2814985;-49
2024/03/15 06:58:28;;;;;;;;;17.33;17.33;;;;;8.84;97.51;99605.16;6276185;20;3560710;-47
2024/03/15 07:00:58;;;;;;;;;31.67;28.33;;;;;8.99;95.17;99604.28;6273938;20;3598218;-47
2024/03/15 07:03:27;;;;;;;;;15.00;15.00;;;;;8.66;99.91;99592.78;6307290;20;2815872;-47
2024/03/15 07:05:58;;;;;;;;;20.00;18.50;;;;;8.64;100.00;99594.69;6306993;20;2837807;-51
2024/03/15 07:08:27;;;;;;;;;19.50;16.00;;;;;9.30;95.39;99591.84;6275236;20;2827373;-50
2024/03/15 07:10:55;;;;;;;;;18.00;17.50;;;;;9.80;95.54;99609.44;6274980;20;2496617;-50
2024/03/15 07:13:22;;;;;;;;;14.00;14.00;;;;;9.35;96.33;99600.47;6277980;20;2807731;-49
2024/03/15 07:15:50;;;;;;;;;12.00;11.00;;;;;9.47;92.33;99606.06;6274070;20;2785724;-47
2024/03/15 07:18:18;;;;;;;;;15.50;15.50;;;;;10.16;92.39;99599.25;6269767;20;2500799;-51
2024/03/15 07:20:46;;;;;;;;;16.00;14.50;;;;;9.38;94.84;99599.44;6268236;20;2817014;-50
2024/03/15 07:23:15;;;;;;;;;19.00;18.33;;;;;9.82;90.57;99606.66;6271262;20;3555559;-50
2024/03/15 07:25:46;;;;;;;;;18.00;16.00;;;;;9.84;90.86;99605.59;6276032;20;2835713;-48
2024/03/15 07:28:13;;;;;;;;;17.50;16.50;;;;;9.71;93.22;99601.94;6277103;20;2500361;-50
2024/03/15 07:30:46;;;;;;;;;23.00;20.00;;;;;10.59;91.08;99605.53;6272891;20;2496108;-47
2024/03/15 07:33:17;;;;;;;;;17.00;16.00;;;;;10.37;89.12;99605.16;6273656;20;3562934;-50
2024/03/15 07:35:49;;;;;;;;;19.00;17.00;;;;;10.88;85.77;99609.06;6275833;20;2842793;-53
2024/03/15 07:38:17;;;;;;;;;18.00;17.00;;;;;10.14;88.64;99607.41;6276304;20;2492045;-49
2024/03/15 07:40:45;;;;;;;;;16.00;16.00;;;;;11.07;86.39;99606.03;6273893;20;2500299;-49
2024/03/15 07:43:13;;;;;;;;;17.00;15.67;;;;;9.88;89.71;99600.94;6277310;20;3544025;-49
2024/03/15 07:45:42;;;;;;;;;19.50;17.00;;;;;9.91;92.81;99606.13;6305720;20;2828505;-49
2024/03/15 07:48:11;;;;;;;;;25.50;25.50;;;;;9.90;91.60;99609.75;6274958;20;2844035;-47
2024/03/15 07:50:41;;;;;;;;;24.00;20.00;;;;;9.99;93.08;99605.66;6273428;20;2837805;-48
2024/03/15 07:53:10;;;;;;;;;25.00;22.00;;;;;10.06;91.21;99612.38;6276630;20;2850465;-47
2024/03/15 07:55:38;;;;;;;;;18.00;17.50;;;;;9.93;91.37;99612.25;6275103;20;2838248;-47
2024/03/15 07:58:08;;;;;;;;;73.00;59.33;;;;;11.81;82.16;99610.06;6273575;20;3632679;-51
2024/03/15 08:00:38;;;;;;;;;20.50;18.00;;;;;10.91;81.78;99613.38;6306842;20;2839930;-48
2024/03/15 08:03:07;;;;;;;;;26.50;25.00;;;;;10.92;88.33;99615.94;6277393;20;2842019;-48
2024/03/15 08:05:38;;;;;;;;;26.50;25.50;;;;;11.62;81.83;99626.59;6274674;20;2855612;-46
2024/03/15 08:08:08;;;;;;;;;71.33;56.00;;;;;12.32;79.38;99621.91;6272834;20;3624304;-49
2024/03/15 08:10:36;;;;;;;;;24.00;23.00;;;;;12.10;82.18;99619.84;6312241;20;3577403;-50
2024/03/15 08:13:07;;;;;;;;;26.00;24.00;;;;;11.28;80.19;99621.75;6270914;20;2841182;-46
2024/03/15 08:15:36;;;;;;;;;24.00;22.00;;;;;10.79;86.12;99619.53;6273788;20;2839879;-48
2024/03/15 08:18:05;;;;;;;;;21.00;20.50;;;;;11.83;81.55;99618.91;6275408;20;2850367;-49
2024/03/15 08:20:34;;;;;;;;;22.50;21.00;;;;;12.70;78.38;99624.59;6276391;20;2840904;-46
2024/03/15 08:23:03;;;;;;;;;24.00;19.50;;;;;11.93;79.28;99623.69;6273917;20;2841970;-49
2024/03/15 08:25:37;;;;;;;;;24.00;21.67;;;;;11.86;82.20;99623.25;6278997;20;3572165;-46
2024/03/15 08:28:07;;;;;;;;;25.00;24.67;;;;;12.84;74.92;99616.38;6308625;20;3578420;-48
2024/03/15 08:30:37;;;;;;;;;25.33;23.00;;;;;12.28;74.57;99615.88;6272320;20;2845350;-48
2024/03/15 08:33:07;;;;;;;;;26.33;23.00;;;;;11.58;82.46;99624.22;6308195;20;3571176;-49
2024/03/15 08:35:36;;;;;;;;;23.50;22.50;;;;;12.85;77.21;99620.81;6282079;20;2836774;-47
2024/03/15 08:38:05;;;;;;;;;24.00;23.00;;;;;12.12;77.72;99615.22;6284983;20;2830468;-48
2024/03/15 08:40:34;;;;;;;;;24.33;21.00;;;;;12.29;83.14;99614.91;6285807;20;3574239;-49
2024/03/15 08:43:02;;;;;;;;;23.00;22.00;;;;;11.79;83.99;99621.91;6284031;20;2844574;-51
2024/03/15 08:45:34;;;;;;;;;64.00;52.67;;;;;12.50;80.20;99626.00;6283779;20;3622119;-47
2024/03/15 08:48:03;;;;;;;;;19.00;19.00;;;;;11.41;79.27;99628.03;6314932;20;2491997;-48
2024/03/15 08:50:32;;;;;;;;;22.33;21.00;;;;;12.52;79.83;99626.75;6288868;20;3576323;-47
2024/03/15 08:53:03;;;;;;;;;28.00;25.00;;;;;12.92;76.89;99618.50;6283866;20;2844034;-49
2024/03/15 08:55:33;;;;;;;;;48.33;37.00;;;;;11.97;80.81;99612.63;6286871;20;3599212;-49
2024/03/15 08:58:03;;;;;;;;;35.67;31.33;;;;;11.58;83.32;99621.53;6287103;20;3593462;-50
2024/03/15 09:00:32;;;;;;;;;30.00;30.00;;;;;13.10;76.21;99625.25;6316352;20;3607708;-48
2024/03/15 09:03:01;;;;;;;;;29.33;25.00;;;;;11.70;81.47;99614.47;6283430;20;3598822;-49
2024/03/15 09:05:30;;;;;;;;;33.33;30.33;;;;;12.56;79.48;99616.63;6287433;20;3613896;-49
2024/03/15 09:07:59;;;;;;;;;29.67;28.33;;;;;12.57;77.16;99621.06;6282348;20;2848316;-46
2024/03/15 09:10:28;;;;;;;;;51.25;37.75;;;;;12.59;79.94;99613.75;6320749;20;3629631;-53
2024/03/15 09:12:57;;;;;;;;;44.33;34.00;;;;;13.02;78.77;99618.72;6317952;20;3596128;-49
2024/03/15 09:15:27;;;;;;;;;38.00;31.00;;;;;13.52;74.76;99619.56;6282904;20;3601330;-47
2024/03/15 09:17:59;;;;;;;;;95.50;86.00;;;;;13.17;75.99;99612.22;6311839;20;1942128;-49
2024/03/15 09:23:02;;;;;;;;;44.75;34.00;;;;;14.08;72.00;99610.81;6284668;20;3622607;-50
2024/03/15 09:25:31;;;;;;;;;35.67;28.33;;;;;13.21;74.12;99612.84;6316948;20;3614919;-49
2024/03/15 09:28:00;;;;;;;;;32.00;28.00;;;;;13.17;73.81;99607.69;6287426;20;3606567;-47
2024/03/15 09:30:36;;;;;;;;;7.00;5.50;;;;;13.51;71.98;99601.66;6287713;20;2749297;-48
2024/03/15 09:33:15;;;;;;;;;43.67;34.67;;;;;13.83;71.61;99608.16;6286549;20;2856508;-52
2024/03/15 09:35:45;;;;;;;;;36.00;32.67;;;;;13.45;71.98;99616.44;6316232;20;3569088;-48
2024/03/15 09:38:14;;;;;;;;;28.33;27.00;;;;;13.86;71.58;99606.22;6284272;20;3597138;-48
2024/03/15 09:40:44;;;;;;;;;30.67;30.00;;;;;14.15;69.46;99606.66;6282394;20;2856525;-48
2024/03/15 09:43:15;;;;;;;;;31.00;30.67;;;;;14.54;67.10;99605.41;6313884;20;3599712;-48
2024/03/15 09:45:44;;;;;;;;;36.67;32.00;;;;;15.14;64.99;99604.16;6277441;20;3598178;-50
2024/03/15 09:48:15;;;;;;;;;39.00;31.00;;;;;15.27;63.52;99597.72;6279855;20;3613242;-47
2024/03/15 09:50:48;;;;;;;;;47.67;38.00;;;;;15.28;64.03;99604.84;6306305;20;3602451;-50
2024/03/15 09:53:17;;;;;;;;;29.67;26.67;;;;;15.09;62.40;99600.97;6275978;20;3591951;-48
2024/03/15 09:55:52;;;;;;;;;35.33;32.67;;;;;14.99;61.78;99605.38;6272137;20;3606492;-49
2024/03/15 09:58:21;;;;;;;;;34.00;31.67;;;;;14.00;66.39;99603.28;6308528;20;3579422;-48
2024/03/15 10:00:50;;;;;;;;;36.33;33.00;;;;;15.22;63.50;99595.41;6279228;20;3576335;-49
2024/03/15 10:03:20;;;;;;;;;36.33;34.00;;;;;14.32;63.99;99608.03;6271724;20;3599283;-50
2024/03/15 10:05:49;;;;;;;;;29.00;29.00;;;;;13.28;65.47;99593.44;6309938;20;3602367;-54
2024/03/15 10:08:21;;;;;;;;;31.00;30.00;;;;;13.94;63.40;99601.09;6279054;20;3608770;-52
2024/03/15 10:10:50;;;;;;;;;34.75;29.50;;;;;14.57;60.07;99604.31;6278715;20;3614880;-47
2024/03/15 10:13:20;;;;;;;;;31.00;28.67;;;;;14.00;62.04;99603.28;6307333;20;3602389;-48
2024/03/15 10:15:50;;;;;;;;;28.67;27.67;;;;;13.97;62.18;99600.84;6279102;20;3598209;-47
2024/03/15 10:18:19;;;;;;;;;24.67;24.33;;;;;14.19;61.00;99590.09;6279903;20;3602441;-46
2024/03/15 10:20:55;;;;;;;;;30.33;27.33;;;;;15.19;59.62;99589.38;6278348;20;3602480;-51
2024/03/15 10:23:24;;;;;;;;;34.00;30.67;;;;;14.84;58.32;99595.81;6277443;20;3613028;-50
2024/03/15 10:25:53;;;;;;;;;39.67;34.00;;;;;14.99;58.01;99593.72;6282379;20;3590890;-52
2024/03/15 10:28:22;;;;;;;;;36.00;32.00;;;;;14.79;57.10;99590.78;6278158;20;2845067;-46
2024/03/15 10:30:55;;;;;;;;;36.00;29.00;;;;;14.68;58.47;99591.63;6310609;20;3623242;-48
2024/03/15 10:33:24;;;;;;;;;37.00;30.33;;;;;14.98;58.15;99582.06;6278369;20;3587874;-49
2024/03/15 10:35:53;;;;;;;;;30.00;28.33;;;;;14.74;57.98;99584.03;6280773;20;3590891;-47
2024/03/15 10:38:22;;;;;;;;;32.33;28.00;;;;;15.41;57.45;99578.50;6280960;20;3610716;-47
2024/03/15 10:40:52;;;;;;;;;33.00;28.67;;;;;15.11;56.57;99584.59;6280411;20;3602544;-52
2024/03/15 10:43:21;;;;;;;;;29.33;26.67;;;;;15.52;52.87;99585.72;6277966;20;3599250;-49
2024/03/15 10:45:52;;;;;;;;;27.67;25.33;;;;;15.55;52.50;99580.91;6275700;20;3604525;-47
2024/03/15 10:48:23;;;;;;;;;34.33;29.33;;;;;15.43;53.75;99584.66;6277071;20;3605488;-47
2024/03/15 10:50:52;;;;;;;;;33.00;27.67;;;;;15.75;52.01;99578.41;6276216;20;3604463;-48
2024/03/15 10:53:24;;;;;;;;;42.67;34.67;;;;;16.54;51.41;99584.19;6277581;20;3595229;-50
2024/03/15 10:55:55;;;;;;;;;29.00;26.33;;;;;16.57;53.04;99583.91;6276114;20;3606530;-48
2024/03/15 10:58:24;;;;;;;;;31.33;28.00;;;;;16.89;49.09;99591.94;6272497;20;3599224;-52
2024/03/15 11:00:53;;;;;;;;;20.50;20.00;;;;;17.78;45.62;99591.94;6272706;20;2840906;-48
2024/03/15 11:03:28;;;;;;;;;23.33;23.33;;;;;17.18;46.39;99576.75;6274629;20;3575852;-48
2024/03/15 11:06:02;;;;;;;;;24.00;22.00;;;;;17.06;45.81;99581.41;6269567;20;2844029;-50
2024/03/15 11:08:40;;;;;;;;;28.67;27.00;;;;;18.03;46.33;99588.81;6306215;20;3587795;-47
2024/03/15 11:11:14;;;;;;;;;19.00;19.00;;;;;18.44;39.77;99579.44;6271014;20;2831625;-50
2024/03/15 11:13:47;;;;;;;;;16.50;16.50;;;;;17.51;41.09;99572.81;6276991;20;2827372;-52
2024/03/15 11:16:27;;;;;;;;;16.00;16.00;;;;;17.15;40.02;99575.16;6276352;20;2827455;-47
2024/03/15 11:19:05;;;;;;;;;21.00;18.00;;;;;17.51;40.23;99583.66;6275725;20;2837880;-48